LZIB/BTS METAR and TAF weather

Enter ICAO airport designator
Station Type Date Time Source
LZIB METAR 2019/12/14 19:30 UTC NOAA

LZIB 141930Z 30011KT CAVOK 08/01 Q1006 R88/CLRD//


Station Type Date Time Source
LZIB Decoded METAR 2019/12/14 19:30 UTC NOAA

Bratislava Ivanka, Slovakia (LZIB) 48-12N 017-12E 142M
Dec 14, 2019 - 02:30 PM EST / 2019.12.14 1930 UTC
Wind: from the WNW (300 degrees) at 13 MPH (11 KT):0
Visibility: greater than 7 mile(s):0
Temperature: 46 F (8 C)
Dew Point: 33 F (1 C)
Relative Humidity: 61%
Pressure (altimeter): 29.71 in. Hg (1006 hPa)
ob: LZIB 141930Z 30011KT CAVOK 08/01 Q1006 R88/CLRD//
cycle: 19

Station Type Date Time Source
LZIB TAF 2019/12/14 18:53 UTC NOAA

TAF LZIB 141700Z 1418/1518 27012KT CAVOK
TEMPO 1418/1420 29020KT
BECMG 1422/1500 22006KT
BECMG 1501/1503 16008KT 9999 SCT045 BKN100
BECMG 1512/1514 04006KT CAVOK

Example: see airport list